BTR weather

Baton Rouge Metropolitan Airport
Baton Rouge, Louisiana, United States

Public forecast

Using degrees Fahrenheit for public forecast. Weather courtesy of forecast.io.

Current aviation weather report (METAR) for Baton Rouge Metropolitan Airport

Retrieved 2019/12/11 12:53 UTC (46 minutes ago):

KBTR 111253Z 01009KT 10SM CLR 06/02 A3044 RMK AO2 SLP308 T00560022

Aviation forecast (TAF) for Baton Rouge Metropolitan Airport

Retrieved 2019/12/11 12:22 UTC (1 hour ago):

TAF KBTR 111120Z 1112/1212 01010G20KT P6SM BKN016 FM111400 04008KT P6SM FEW130 SCT150